createdAt,value
2023-02-15T00:00:14.176Z,54.00
2023-02-15T00:01:14.216Z,55.15
2023-02-15T00:02:14.218Z,55.27
2023-02-15T00:03:14.260Z,55.77
2023-02-15T00:04:14.151Z,55.35
2023-02-15T00:05:14.113Z,53.90
2023-02-15T00:06:14.110Z,53.36
2023-02-15T00:07:14.105Z,53.80
2023-02-15T00:08:14.082Z,54.21
2023-02-15T00:09:14.080Z,53.80
2023-02-15T00:10:14.062Z,53.90
2023-02-15T00:11:14.047Z,53.80
2023-02-15T00:12:14.039Z,54.32
2023-02-15T00:13:14.091Z,54.21
2023-02-15T00:14:14.021Z,54.08
2023-02-15T00:15:14.015Z,55.25
2023-02-15T00:16:14.052Z,55.25
2023-02-15T00:17:13.977Z,54.83
2023-02-15T00:18:14.007Z,53.49
2023-02-15T00:19:13.978Z,53.28
2023-02-15T00:20:13.946Z,52.04
2023-02-15T00:21:13.932Z,53.69
2023-02-15T00:22:13.925Z,54.21
2023-02-15T00:23:13.927Z,54.00
2023-02-15T00:24:13.908Z,54.21
2023-02-15T00:25:13.936Z,52.56
2023-02-15T00:26:13.882Z,52.01
2023-02-15T00:27:13.884Z,50.67
2023-02-15T00:28:13.859Z,52.61
2023-02-15T00:29:13.844Z,53.46
2023-02-15T00:30:13.882Z,55.54
2023-02-15T00:31:14.062Z,55.64
2023-02-15T00:32:13.818Z,55.87
2023-02-15T00:33:13.812Z,54.29
2023-02-15T00:34:13.818Z,55.15
2023-02-15T00:35:13.794Z,54.83
2023-02-15T00:36:13.772Z,55.25
2023-02-15T00:37:13.784Z,54.11
2023-02-15T00:38:13.753Z,54.73
2023-02-15T00:39:13.752Z,56.08
2023-02-15T00:40:13.731Z,55.87
2023-02-15T00:41:13.716Z,53.49
2023-02-15T00:42:13.708Z,55.04
2023-02-15T00:43:13.720Z,54.21
2023-02-15T00:44:13.697Z,53.77
2023-02-15T00:45:13.694Z,53.38
2023-02-15T00:46:13.672Z,53.49
2023-02-15T00:47:13.650Z,53.69
2023-02-15T00:48:13.670Z,52.66
2023-02-15T00:49:13.673Z,51.21
2023-02-15T00:50:13.664Z,50.38
2023-02-15T00:51:13.610Z,52.74
2023-02-15T00:52:13.603Z,52.95
2023-02-15T00:53:13.590Z,53.25
2023-02-15T00:54:13.579Z,53.90
2023-02-15T00:55:13.604Z,53.08
2023-02-15T00:56:13.568Z,51.73
2023-02-15T00:57:13.541Z,53.17
2023-02-15T00:58:13.537Z,54.19
2023-02-15T00:59:13.524Z,55.25
2023-02-15T01:00:13.547Z,54.11
2023-02-15T01:01:13.603Z,55.35
2023-02-15T01:02:13.510Z,53.28
2023-02-15T01:03:13.482Z,54.00
2023-02-15T01:04:13.522Z,53.77
2023-02-15T01:05:13.464Z,53.69
2023-02-15T01:06:13.468Z,53.17
2023-02-15T01:07:13.494Z,50.67
2023-02-15T01:08:13.428Z,51.18
2023-02-15T01:09:13.416Z,51.08
2023-02-15T01:10:13.406Z,52.01
2023-02-15T01:11:13.401Z,52.64
2023-02-15T01:12:13.391Z,52.12
2023-02-15T01:13:13.415Z,54.08
2023-02-15T01:14:13.366Z,55.35
2023-02-15T01:15:13.354Z,52.97
2023-02-15T01:16:13.365Z,52.04
2023-02-15T01:17:13.327Z,52.04
2023-02-15T01:18:13.425Z,52.87
2023-02-15T01:19:13.336Z,53.25
2023-02-15T01:20:13.303Z,54.32
2023-02-15T01:21:13.289Z,52.66
2023-02-15T01:22:13.299Z,53.49
2023-02-15T01:23:13.265Z,52.04
2023-02-15T01:24:13.274Z,51.62
2023-02-15T01:25:13.274Z,52.97
2023-02-15T01:26:13.236Z,53.17
2023-02-15T01:27:13.228Z,52.66
2023-02-15T01:28:13.216Z,52.01
2023-02-15T01:29:13.203Z,53.36
2023-02-15T01:30:13.250Z,50.87
2023-02-15T01:31:13.359Z,50.04
2023-02-15T01:32:13.296Z,52.01
2023-02-15T01:33:13.164Z,53.05
2023-02-15T01:34:13.156Z,50.15
2023-02-15T01:35:13.140Z,50.04
2023-02-15T01:36:13.121Z,50.95
2023-02-15T01:37:13.161Z,51.16
2023-02-15T01:38:13.127Z,49.84
2023-02-15T01:39:13.102Z,49.81
2023-02-15T01:40:13.105Z,50.64
2023-02-15T01:41:13.086Z,50.87
2023-02-15T01:42:13.078Z,49.52
2023-02-15T01:43:13.085Z,49.94
2023-02-15T01:44:13.037Z,51.18
2023-02-15T01:45:13.030Z,51.50
2023-02-15T01:46:13.045Z,52.76
2023-02-15T01:47:13.017Z,51.83
2023-02-15T01:48:12.995Z,52.56
2023-02-15T01:49:13.011Z,52.04
2023-02-15T01:50:12.978Z,52.25
2023-02-15T01:51:12.984Z,52.66
2023-02-15T01:52:12.949Z,51.31
2023-02-15T01:53:12.941Z,52.01
2023-02-15T01:54:12.944Z,53.17
2023-02-15T01:55:12.942Z,52.76
2023-02-15T01:56:12.906Z,49.32
2023-02-15T01:57:12.906Z,49.01
2023-02-15T01:58:12.883Z,49.09
2023-02-15T01:59:12.895Z,50.56
2023-02-15T02:00:12.860Z,52.01
2023-02-15T02:01:12.959Z,53.90
2023-02-15T02:02:12.846Z,54.00
2023-02-15T02:03:12.829Z,49.52
2023-02-15T02:04:12.817Z,51.91
2023-02-15T02:05:12.834Z,50.67
2023-02-15T02:06:12.808Z,49.42
2023-02-15T02:07:12.817Z,50.02
2023-02-15T02:08:12.775Z,48.90
2023-02-15T02:09:12.765Z,49.91
2023-02-15T02:10:12.878Z,53.46
2023-02-15T02:11:12.754Z,54.21
2023-02-15T02:12:12.727Z,52.25
2023-02-15T02:13:12.762Z,55.87
2023-02-15T02:14:12.707Z,57.56
2023-02-15T02:15:12.698Z,56.93
2023-02-15T02:16:12.875Z,53.23
2023-02-15T02:17:12.680Z,53.10
2023-02-15T02:18:12.665Z,54.86
2023-02-15T02:19:12.703Z,53.20
2023-02-15T02:20:12.640Z,50.30
2023-02-15T02:21:12.634Z,53.30
2023-02-15T02:22:12.656Z,50.92
2023-02-15T02:23:12.612Z,49.16
2023-02-15T02:24:12.597Z,49.34
2023-02-15T02:25:12.619Z,49.34
2023-02-15T02:26:12.596Z,48.80
2023-02-15T02:27:12.568Z,49.55
2023-02-15T02:28:12.564Z,47.77
2023-02-15T02:29:12.546Z,45.69
2023-02-15T02:30:12.550Z,49.32
2023-02-15T02:31:12.610Z,47.97
2023-02-15T02:32:12.556Z,50.38
2023-02-15T02:33:12.517Z,47.16
2023-02-15T02:34:12.494Z,48.72
2023-02-15T02:35:12.509Z,50.25
2023-02-15T02:36:12.468Z,50.79
2023-02-15T02:37:12.459Z,52.56
2023-02-15T02:38:12.492Z,52.79
2023-02-15T02:39:12.477Z,53.49
2023-02-15T02:40:12.424Z,55.17
2023-02-15T02:41:12.428Z,55.17
2023-02-15T02:42:12.434Z,53.38
2023-02-15T02:43:12.407Z,51.96
2023-02-15T02:44:12.410Z,51.75
2023-02-15T02:45:12.383Z,52.79
2023-02-15T02:46:12.478Z,52.89
2023-02-15T02:47:12.364Z,54.03
2023-02-15T02:48:12.340Z,53.41
2023-02-15T02:49:12.330Z,52.09
2023-02-15T02:50:12.372Z,53.61
2023-02-15T02:51:12.309Z,55.48
2023-02-15T02:52:12.296Z,53.75
2023-02-15T02:53:12.300Z,54.16
2023-02-15T02:54:12.272Z,53.10
2023-02-15T02:55:12.274Z,52.79
2023-02-15T02:56:12.292Z,50.20
2023-02-15T02:57:12.254Z,50.20
2023-02-15T02:58:12.249Z,50.40
2023-02-15T02:59:12.226Z,51.03
2023-02-15T03:00:12.217Z,52.27
2023-02-15T03:01:12.206Z,52.79
2023-02-15T03:02:12.323Z,52.06
2023-02-15T03:03:12.278Z,50.61
2023-02-15T03:04:12.174Z,50.59
2023-02-15T03:05:12.163Z,51.21
2023-02-15T03:06:12.144Z,51.73
2023-02-15T03:07:12.136Z,50.20
2023-02-15T03:08:12.146Z,49.13
2023-02-15T03:09:12.126Z,49.37
2023-02-15T03:10:12.103Z,49.55
2023-02-15T03:11:12.130Z,50.27
2023-02-15T03:12:12.082Z,51.03
2023-02-15T03:13:12.069Z,51.10
2023-02-15T03:14:12.111Z,51.96
2023-02-15T03:15:12.048Z,50.30
2023-02-15T03:16:12.141Z,48.33
2023-02-15T03:17:12.055Z,48.95
2023-02-15T03:18:12.015Z,50.82
2023-02-15T03:19:12.009Z,52.87
2023-02-15T03:20:12.038Z,53.41
2023-02-15T03:21:11.988Z,51.03
2023-02-15T03:22:11.985Z,50.61
2023-02-15T03:23:11.966Z,51.34
2023-02-15T03:24:11.956Z,49.99
2023-02-15T03:25:11.950Z,51.13
2023-02-15T03:26:11.976Z,51.34
2023-02-15T03:27:11.922Z,49.88
2023-02-15T03:28:11.922Z,50.71
2023-02-15T03:29:11.917Z,50.40
2023-02-15T03:30:11.952Z,49.47
2023-02-15T03:31:11.980Z,48.82
2023-02-15T03:32:11.999Z,49.24
2023-02-15T03:33:11.869Z,49.65
2023-02-15T03:34:11.850Z,49.44
2023-02-15T03:35:11.837Z,51.21
2023-02-15T03:36:11.822Z,49.44
2023-02-15T03:37:11.819Z,49.03
2023-02-15T03:38:11.870Z,47.78
2023-02-15T03:39:11.796Z,47.68
2023-02-15T03:40:11.794Z,49.03
2023-02-15T03:41:11.801Z,48.93
2023-02-15T03:42:11.756Z,50.17
2023-02-15T03:43:11.761Z,51.86
2023-02-15T03:44:11.757Z,49.76
2023-02-15T03:45:11.730Z,49.13
2023-02-15T03:46:11.791Z,50.07
2023-02-15T03:47:11.707Z,50.90
2023-02-15T03:48:11.816Z,49.24
2023-02-15T03:49:11.700Z,50.38
2023-02-15T03:50:11.703Z,50.38
2023-02-15T03:51:11.668Z,50.82
2023-02-15T03:52:11.649Z,52.50
2023-02-15T03:53:11.644Z,51.98
2023-02-15T03:54:11.649Z,49.49
2023-02-15T03:55:11.618Z,50.30
2023-02-15T03:56:11.625Z,51.78
2023-02-15T03:57:11.607Z,48.56
2023-02-15T03:58:11.593Z,48.12
2023-02-15T03:59:11.584Z,48.02
2023-02-15T04:00:11.573Z,48.41
2023-02-15T04:01:11.635Z,51.52
2023-02-15T04:02:11.581Z,52.48
2023-02-15T04:03:11.579Z,52.37
2023-02-15T04:04:11.520Z,51.13
2023-02-15T04:05:11.512Z,50.51
2023-02-15T04:06:11.511Z,50.09
2023-02-15T04:07:11.487Z,48.02
2023-02-15T04:08:11.475Z,48.93
2023-02-15T04:09:11.498Z,47.99
2023-02-15T04:10:11.455Z,49.55
2023-02-15T04:11:11.443Z,50.25
2023-02-15T04:12:11.440Z,50.27
2023-02-15T04:13:11.424Z,49.86
2023-02-15T04:14:11.408Z,48.30
2023-02-15T04:15:11.455Z,49.76
2023-02-15T04:16:11.398Z,49.76
2023-02-15T04:17:11.379Z,50.17
2023-02-15T04:18:11.389Z,49.37
2023-02-15T04:19:11.354Z,49.99
2023-02-15T04:20:11.356Z,49.68
2023-02-15T04:21:11.371Z,49.76
2023-02-15T04:22:11.315Z,49.68
2023-02-15T04:23:11.310Z,49.24
2023-02-15T04:24:11.296Z,48.10
2023-02-15T04:25:11.288Z,48.82
2023-02-15T04:26:11.284Z,50.27
2023-02-15T04:27:11.296Z,52.25
2023-02-15T04:28:11.253Z,50.09
2023-02-15T04:29:11.244Z,50.07
2023-02-15T04:30:11.263Z,49.65
2023-02-15T04:31:11.424Z,48.02
2023-02-15T04:32:11.242Z,48.02
2023-02-15T04:33:11.240Z,48.12
2023-02-15T04:34:11.203Z,47.58
2023-02-15T04:35:11.177Z,49.13
2023-02-15T04:36:11.162Z,50.38
2023-02-15T04:37:11.164Z,49.57
2023-02-15T04:38:11.143Z,48.95
2023-02-15T04:39:11.167Z,47.71
2023-02-15T04:40:11.132Z,49.05
2023-02-15T04:41:11.111Z,48.82
2023-02-15T04:42:11.097Z,49.86
2023-02-15T04:43:11.102Z,51.54
2023-02-15T04:44:11.074Z,51.13
2023-02-15T04:45:11.120Z,49.88
2023-02-15T04:46:11.134Z,50.92
2023-02-15T04:47:11.059Z,49.99
2023-02-15T04:48:11.033Z,49.37
2023-02-15T04:49:11.023Z,49.44
2023-02-15T04:50:11.041Z,48.30
2023-02-15T04:51:11.043Z,47.99
2023-02-15T04:52:10.987Z,48.61
2023-02-15T04:53:10.992Z,48.41
2023-02-15T04:54:10.966Z,49.34
2023-02-15T04:55:10.959Z,49.99
2023-02-15T04:56:10.954Z,49.44
2023-02-15T04:57:10.965Z,49.16
2023-02-15T04:58:10.923Z,49.78
2023-02-15T04:59:10.915Z,49.65
2023-02-15T05:00:10.904Z,50.27
2023-02-15T05:01:10.969Z,49.34
2023-02-15T05:02:10.898Z,49.65
2023-02-15T05:03:10.895Z,48.93
2023-02-15T05:04:10.882Z,48.80
2023-02-15T05:05:10.850Z,48.20
2023-02-15T05:06:10.855Z,49.13
2023-02-15T05:07:10.829Z,48.93
2023-02-15T05:08:10.824Z,48.41
2023-02-15T05:09:10.827Z,48.61
2023-02-15T05:10:10.804Z,47.68
2023-02-15T05:11:10.784Z,47.78
2023-02-15T05:12:10.772Z,48.10
2023-02-15T05:13:10.765Z,48.39
2023-02-15T05:14:10.758Z,49.55
2023-02-15T05:15:10.769Z,49.11
2023-02-15T05:16:10.726Z,48.93
2023-02-15T05:17:10.730Z,49.13
2023-02-15T05:18:10.706Z,48.72
2023-02-15T05:19:10.710Z,52.66
2023-02-15T05:20:10.687Z,54.99
2023-02-15T05:21:10.695Z,51.44
2023-02-15T05:22:10.688Z,49.68
2023-02-15T05:23:10.665Z,50.61
2023-02-15T05:24:10.639Z,50.20
2023-02-15T05:25:10.643Z,50.48
2023-02-15T05:26:10.620Z,48.95
2023-02-15T05:27:10.633Z,50.40
2023-02-15T05:28:10.600Z,51.54
2023-02-15T05:29:10.592Z,51.86
2023-02-15T05:30:10.704Z,50.90
2023-02-15T05:31:10.853Z,50.71
2023-02-15T05:32:10.674Z,51.13
2023-02-15T05:33:10.572Z,52.48
2023-02-15T05:34:10.535Z,51.52
2023-02-15T05:35:10.539Z,49.26
2023-02-15T05:36:10.513Z,51.03
2023-02-15T05:37:10.507Z,48.12
2023-02-15T05:38:10.512Z,46.85
2023-02-15T05:39:10.515Z,46.03
2023-02-15T05:40:10.484Z,47.45
2023-02-15T05:41:10.475Z,46.73
2023-02-15T05:42:10.460Z,46.34
2023-02-15T05:43:10.441Z,45.69
2023-02-15T05:44:10.443Z,49.44
2023-02-15T05:45:10.447Z,50.07
2023-02-15T05:46:10.471Z,49.44
2023-02-15T05:47:18.345Z,50.07
2023-02-15T05:48:10.396Z,47.89
2023-02-15T05:49:10.386Z,47.89
2023-02-15T05:50:10.367Z,48.95
2023-02-15T05:51:10.356Z,48.93
2023-02-15T05:52:10.347Z,49.55
2023-02-15T05:53:17.886Z,51.73
2023-02-15T05:54:10.339Z,53.92
2023-02-15T05:55:10.309Z,53.00
2023-02-15T05:56:10.306Z,52.76
2023-02-15T05:57:10.320Z,51.93
2023-02-15T05:58:10.384Z,51.96
2023-02-15T05:59:10.269Z,51.23
2023-02-15T06:00:10.257Z,49.68
2023-02-15T06:01:10.264Z,50.38
2023-02-15T06:02:10.286Z,51.13
2023-02-15T06:03:10.277Z,51.65
2023-02-15T06:04:10.248Z,50.27
2023-02-15T06:05:10.212Z,50.92
2023-02-15T06:06:10.197Z,51.34
2023-02-15T06:07:10.180Z,51.86
2023-02-15T06:08:10.177Z,52.25
2023-02-15T06:09:10.208Z,52.69
2023-02-15T06:10:10.148Z,51.54
2023-02-15T06:11:10.147Z,50.40
2023-02-15T06:12:10.129Z,50.20
2023-02-15T06:13:10.127Z,47.78
2023-02-15T06:14:10.106Z,47.81
2023-02-15T06:15:10.128Z,49.13
2023-02-15T06:16:10.173Z,49.55
2023-02-15T06:17:10.072Z,50.51
2023-02-15T06:18:10.067Z,50.40
2023-02-15T06:19:10.061Z,49.68
2023-02-15T06:20:10.070Z,52.06
2023-02-15T06:21:10.096Z,50.61
2023-02-15T06:22:10.041Z,51.10
2023-02-15T06:23:10.035Z,50.59
2023-02-15T06:24:10.042Z,50.27
2023-02-15T06:25:10.034Z,50.69
2023-02-15T06:26:10.012Z,51.00
2023-02-15T06:27:10.018Z,51.54
2023-02-15T06:28:09.958Z,50.38
2023-02-15T06:29:09.964Z,49.78
2023-02-15T06:30:10.027Z,47.89
2023-02-15T06:31:10.003Z,47.99
2023-02-15T06:32:09.987Z,46.11
2023-02-15T06:33:09.940Z,48.10
2023-02-15T06:34:09.892Z,49.47
2023-02-15T06:35:09.877Z,49.96
2023-02-15T06:36:09.879Z,49.86
2023-02-15T06:37:09.877Z,50.38
2023-02-15T06:38:09.858Z,50.46
2023-02-15T06:39:09.835Z,49.86
2023-02-15T06:40:09.870Z,50.98
2023-02-15T06:41:09.831Z,50.17
2023-02-15T06:42:09.824Z,51.31
2023-02-15T06:43:09.787Z,50.35
2023-02-15T06:44:09.801Z,50.82
2023-02-15T06:45:09.769Z,49.26
2023-02-15T06:46:09.810Z,47.78
2023-02-15T06:47:09.770Z,45.30
2023-02-15T06:48:09.752Z,46.21
2023-02-15T06:49:09.724Z,46.83
2023-02-15T06:50:09.729Z,47.87
2023-02-15T06:51:09.703Z,48.08
2023-02-15T06:52:09.710Z,47.78
2023-02-15T06:53:09.710Z,46.21
2023-02-15T06:54:09.671Z,47.25
2023-02-15T06:55:09.694Z,47.25
2023-02-15T06:56:09.665Z,47.87
2023-02-15T06:57:09.736Z,48.69
2023-02-15T06:58:09.663Z,47.66
2023-02-15T06:59:09.634Z,47.95
2023-02-15T07:00:09.608Z,49.65
2023-02-15T07:01:09.617Z,50.56
2023-02-15T07:02:09.584Z,52.25
2023-02-15T07:03:09.580Z,51.96
2023-02-15T07:04:09.598Z,51.21
2023-02-15T07:05:09.610Z,48.22
2023-02-15T07:06:09.546Z,49.96
2023-02-15T07:07:09.523Z,50.27
2023-02-15T07:08:09.526Z,47.89
2023-02-15T07:09:09.515Z,50.17
2023-02-15T07:10:09.533Z,51.29
2023-02-15T07:11:09.479Z,50.56
2023-02-15T07:12:09.476Z,53.08
2023-02-15T07:13:09.484Z,53.80
2023-02-15T07:14:09.448Z,51.83
2023-02-15T07:15:09.435Z,50.69
2023-02-15T07:16:09.486Z,51.81
2023-02-15T07:17:27.420Z,51.18
2023-02-15T07:18:10.453Z,51.18
2023-02-15T07:19:09.452Z,52.53
2023-02-15T07:20:09.433Z,54.73
2023-02-15T07:21:09.381Z,53.46
2023-02-15T07:22:09.358Z,50.67
2023-02-15T07:23:09.370Z,50.77
2023-02-15T07:24:09.346Z,52.33
2023-02-15T07:25:09.359Z,53.15
2023-02-15T07:26:09.361Z,52.04
2023-02-15T07:27:09.321Z,53.69
2023-02-15T07:28:09.293Z,52.14
2023-02-15T07:29:09.348Z,51.93
2023-02-15T07:30:09.385Z,51.75
2023-02-15T07:31:09.302Z,50.79
2023-02-15T07:32:09.320Z,50.46
2023-02-15T07:33:09.264Z,52.53
2023-02-15T07:34:09.233Z,51.08
2023-02-15T07:35:09.218Z,47.77
2023-02-15T07:36:09.246Z,46.52
2023-02-15T07:37:09.204Z,49.42
2023-02-15T07:38:09.198Z,47.45
2023-02-15T07:39:09.197Z,48.08
2023-02-15T07:40:09.163Z,49.42
2023-02-15T07:41:09.156Z,48.96
2023-02-15T07:42:09.146Z,49.19
2023-02-15T07:43:09.171Z,50.77
2023-02-15T07:44:09.149Z,51.18
2023-02-15T07:45:09.214Z,50.15
2023-02-15T07:46:09.139Z,51.50
2023-02-15T07:47:09.086Z,51.91
2023-02-15T07:48:09.079Z,46.31
2023-02-15T07:49:09.073Z,48.05
2023-02-15T07:50:09.113Z,49.91
2023-02-15T07:51:09.044Z,49.01
2023-02-15T07:52:09.034Z,50.56
2023-02-15T07:53:09.026Z,49.73
2023-02-15T07:54:09.024Z,50.56
2023-02-15T07:55:09.005Z,49.34
2023-02-15T07:56:09.042Z,48.10
2023-02-15T07:57:08.980Z,48.30
2023-02-15T07:58:08.967Z,46.52
2023-02-15T07:59:08.953Z,45.88
2023-02-15T08:00:08.956Z,42.42
2023-02-15T08:01:08.957Z,44.41
2023-02-15T08:02:08.946Z,44.10
2023-02-15T08:03:09.021Z,41.04
2023-02-15T08:04:08.906Z,39.45
2023-02-15T08:05:09.017Z,41.41
2023-02-15T08:06:08.891Z,41.13
2023-02-15T08:07:08.870Z,41.00
2023-02-15T08:08:08.894Z,41.10
2023-02-15T08:09:08.852Z,41.02
2023-02-15T08:10:08.836Z,40.71
2023-02-15T08:11:08.840Z,43.29
2023-02-15T08:12:08.817Z,42.80
2023-02-15T08:13:08.802Z,44.37
2023-02-15T08:14:08.839Z,43.31
2023-02-15T08:15:08.788Z,44.39
2023-02-15T08:16:08.879Z,41.52
2023-02-15T08:17:08.793Z,40.75
2023-02-15T08:18:08.762Z,37.73
2023-02-15T08:19:08.739Z,38.41
2023-02-15T08:20:08.787Z,39.22
2023-02-15T08:21:08.719Z,36.90
2023-02-15T08:22:08.711Z,37.43
2023-02-15T08:23:08.707Z,35.89
2023-02-15T08:24:08.696Z,37.52
2023-02-15T08:25:08.681Z,36.08
2023-02-15T08:26:08.695Z,35.55
2023-02-15T08:27:08.653Z,38.10
2023-02-15T08:28:08.656Z,39.84
2023-02-15T08:29:08.667Z,38.82
2023-02-15T08:30:08.687Z,39.00
2023-02-15T08:31:08.685Z,37.99
2023-02-15T08:32:08.716Z,38.17
2023-02-15T08:33:08.617Z,37.24
2023-02-15T08:34:08.589Z,35.39
2023-02-15T08:35:08.576Z,34.67
2023-02-15T08:36:08.558Z,35.08
2023-02-15T08:37:08.554Z,34.44
2023-02-15T08:38:08.558Z,34.23
2023-02-15T08:39:08.522Z,34.33
2023-02-15T08:40:08.515Z,33.91
2023-02-15T08:41:08.500Z,34.40
2023-02-15T08:42:08.501Z,34.59
2023-02-15T08:43:08.494Z,34.39
2023-02-15T08:44:08.495Z,35.10
2023-02-15T08:45:08.460Z,35.08
2023-02-15T08:46:08.517Z,36.75
2023-02-15T08:47:08.436Z,37.67
2023-02-15T08:48:08.428Z,36.82
2023-02-15T08:49:08.470Z,35.39
2023-02-15T08:50:08.442Z,35.41
2023-02-15T08:51:08.391Z,35.73
2023-02-15T08:52:08.403Z,36.77
2023-02-15T08:53:08.378Z,36.87
2023-02-15T08:54:08.372Z,37.29
2023-02-15T08:55:08.348Z,36.72
2023-02-15T08:56:08.370Z,35.50
2023-02-15T08:57:08.323Z,35.39
2023-02-15T08:58:08.312Z,36.49
2023-02-15T08:59:08.313Z,37.33
2023-02-15T09:00:08.305Z,36.08
2023-02-15T09:01:08.307Z,36.47
2023-02-15T09:02:08.326Z,37.28
2023-02-15T09:03:08.268Z,35.13
2023-02-15T09:04:08.255Z,36.47
2023-02-15T09:05:08.302Z,36.47
2023-02-15T09:06:08.224Z,37.21
2023-02-15T09:07:08.253Z,36.92
2023-02-15T09:08:08.202Z,37.02
2023-02-15T09:09:08.189Z,38.15
2023-02-15T09:10:08.176Z,37.93
2023-02-15T09:11:08.164Z,38.13
2023-02-15T09:12:08.160Z,37.23
2023-02-15T09:13:08.169Z,37.21
2023-02-15T09:14:08.136Z,37.11
2023-02-15T09:15:08.134Z,37.41
2023-02-15T09:16:08.210Z,35.15
2023-02-15T09:17:08.096Z,36.38
2023-02-15T09:18:08.097Z,36.38
2023-02-15T09:19:08.091Z,38.89
2023-02-15T09:20:08.078Z,38.20
2023-02-15T09:21:08.090Z,38.78
2023-02-15T09:22:08.057Z,37.67
2023-02-15T09:23:13.737Z,37.77
2023-02-15T09:24:09.016Z,38.79
2023-02-15T09:25:08.015Z,38.16
2023-02-15T09:26:07.993Z,38.04
2023-02-15T09:27:08.006Z,37.96
2023-02-15T09:28:07.980Z,38.65
2023-02-15T09:29:07.956Z,36.71
2023-02-15T09:30:08.012Z,37.82
2023-02-15T09:31:07.978Z,37.63
2023-02-15T09:32:07.983Z,36.65
2023-02-15T09:33:07.929Z,38.46
2023-02-15T09:34:07.915Z,37.65
2023-02-15T09:35:07.891Z,37.63
2023-02-15T09:36:07.881Z,38.02
2023-02-15T09:37:07.899Z,36.61
2023-02-15T09:38:07.860Z,36.92
2023-02-15T09:39:07.860Z,37.04
2023-02-15T09:40:07.837Z,38.14
2023-02-15T09:41:07.820Z,37.92
2023-02-15T09:42:07.816Z,36.99
2023-02-15T09:43:07.821Z,36.60
2023-02-15T09:44:07.806Z,36.19
2023-02-15T09:45:07.797Z,36.60
2023-02-15T09:46:07.818Z,37.02
2023-02-15T09:47:07.762Z,37.94
2023-02-15T09:48:07.752Z,37.53
2023-02-15T09:49:07.759Z,36.38
2023-02-15T09:50:07.737Z,37.80
2023-02-15T09:51:07.713Z,37.19
2023-02-15T09:52:07.705Z,35.95
2023-02-15T09:53:07.712Z,36.56
2023-02-15T09:54:07.692Z,36.77
2023-02-15T09:55:07.685Z,37.79
2023-02-15T09:56:07.683Z,37.99
2023-02-15T09:57:07.654Z,36.66
2023-02-15T09:58:07.642Z,38.09
2023-02-15T09:59:07.630Z,39.01
2023-02-15T10:00:07.627Z,38.07
2023-02-15T10:01:07.654Z,38.67
2023-02-15T10:02:07.596Z,36.90
2023-02-15T10:03:08.384Z,36.49
2023-02-15T10:04:07.609Z,34.99
2023-02-15T10:05:07.566Z,36.53
2023-02-15T10:06:07.653Z,37.05
2023-02-15T10:07:07.563Z,37.05
2023-02-15T10:08:07.535Z,36.14
2023-02-15T10:09:08.438Z,36.55
2023-02-15T10:10:07.508Z,37.56
2023-02-15T10:11:07.513Z,36.83
2023-02-15T10:12:07.522Z,36.44
2023-02-15T10:13:07.489Z,34.90
2023-02-15T10:14:07.465Z,36.55
2023-02-15T10:15:07.456Z,37.45
2023-02-15T10:16:07.442Z,34.80
2023-02-15T10:17:07.460Z,34.90
2023-02-15T10:18:07.475Z,35.71
2023-02-15T10:19:07.415Z,35.80
2023-02-15T10:20:07.400Z,35.49
2023-02-15T10:21:07.394Z,36.08
2023-02-15T10:22:07.386Z,36.07
2023-02-15T10:23:07.370Z,34.34
2023-02-15T10:24:07.372Z,35.27
2023-02-15T10:25:07.369Z,35.17
2023-02-15T10:26:07.333Z,34.56
2023-02-15T10:27:07.335Z,35.60
2023-02-15T10:28:07.335Z,35.00
2023-02-15T10:29:07.302Z,35.61
2023-02-15T10:30:07.319Z,35.26
2023-02-15T10:31:07.510Z,35.16
2023-02-15T10:32:07.430Z,36.05
2023-02-15T10:33:07.257Z,35.04
2023-02-15T10:34:07.250Z,33.94
2023-02-15T10:35:07.238Z,35.14
2023-02-15T10:36:07.245Z,34.22
2023-02-15T10:37:07.213Z,36.58
2023-02-15T10:38:07.199Z,33.14
2023-02-15T10:39:07.198Z,34.65
2023-02-15T10:40:07.175Z,34.95
2023-02-15T10:41:07.205Z,35.36
2023-02-15T10:42:07.181Z,36.69
2023-02-15T10:43:07.144Z,36.88
2023-02-15T10:44:07.133Z,36.17
2023-02-15T10:45:07.124Z,34.26
2023-02-15T10:46:07.165Z,36.27
2023-02-15T10:47:07.101Z,36.16
2023-02-15T10:48:07.117Z,34.44
2023-02-15T10:49:07.083Z,35.36
2023-02-15T10:50:07.078Z,34.94
2023-02-15T10:51:07.059Z,35.12
2023-02-15T10:52:07.047Z,34.92
2023-02-15T10:53:07.050Z,36.95
2023-02-15T10:54:07.033Z,34.53
2023-02-15T10:55:07.011Z,35.92
2023-02-15T10:56:07.011Z,34.91
2023-02-15T10:57:07.050Z,34.02
2023-02-15T10:58:06.976Z,34.19
2023-02-15T10:59:06.980Z,34.09
2023-02-15T11:00:06.974Z,33.33
2023-02-15T11:01:06.985Z,33.50
2023-02-15T11:02:06.932Z,32.17
2023-02-15T11:03:06.932Z,34.78
2023-02-15T11:04:06.913Z,32.37
2023-02-15T11:05:06.992Z,33.99
2023-02-15T11:06:06.905Z,34.19
2023-02-15T11:07:06.880Z,32.59
2023-02-15T11:08:06.864Z,32.77
2023-02-15T11:09:06.856Z,34.28
2023-02-15T11:10:06.852Z,33.55
2023-02-15T11:11:06.843Z,32.03
2023-02-15T11:12:06.856Z,32.44
2023-02-15T11:13:06.835Z,32.56
2023-02-15T11:14:06.816Z,32.26
2023-02-15T11:15:06.791Z,30.66
2023-02-15T11:16:06.845Z,31.76
2023-02-15T11:17:06.767Z,32.67
2023-02-15T11:18:06.785Z,31.54
2023-02-15T11:19:06.759Z,32.06
2023-02-15T11:20:06.736Z,32.48
2023-02-15T11:21:06.726Z,31.06
2023-02-15T11:22:06.721Z,33.50
2023-02-15T11:23:06.702Z,33.48
2023-02-15T11:24:06.698Z,32.17
2023-02-15T11:25:06.678Z,31.93
2023-02-15T11:26:06.668Z,32.23
2023-02-15T11:27:06.708Z,30.63
2023-02-15T11:28:06.645Z,32.57
2023-02-15T11:29:06.759Z,33.06
2023-02-15T11:30:06.686Z,32.86
2023-02-15T11:31:06.954Z,30.64
2023-02-15T11:32:06.712Z,31.87
2023-02-15T11:33:07.221Z,32.48
2023-02-15T11:34:06.575Z,31.66
2023-02-15T11:35:06.577Z,32.65
2023-02-15T11:36:06.568Z,30.73
2023-02-15T11:37:06.547Z,33.26
2023-02-15T11:38:06.544Z,32.23
2023-02-15T11:39:06.521Z,30.71
2023-02-15T11:40:06.507Z,33.25
2023-02-15T11:41:06.511Z,30.70
2023-02-15T11:42:06.522Z,32.44
2023-02-15T11:43:06.498Z,32.35
2023-02-15T11:44:06.462Z,31.15
2023-02-15T11:45:06.472Z,32.95
2023-02-15T11:46:06.488Z,31.02
2023-02-15T11:47:06.430Z,32.42
2023-02-15T11:48:06.427Z,30.02
2023-02-15T11:49:06.420Z,31.76
2023-02-15T11:50:06.394Z,30.73
2023-02-15T11:51:06.387Z,30.93
2023-02-15T11:52:06.390Z,33.47
2023-02-15T11:53:06.366Z,32.42
2023-02-15T11:54:06.373Z,33.04
2023-02-15T11:55:06.341Z,31.93
2023-02-15T11:56:06.328Z,33.55
2023-02-15T11:57:06.327Z,33.44
2023-02-15T11:58:06.318Z,32.62
2023-02-15T11:59:06.308Z,31.61
2023-02-15T12:00:06.294Z,33.44
2023-02-15T12:01:06.294Z,30.70
2023-02-15T12:02:06.264Z,31.93
2023-02-15T12:03:06.282Z,32.15
2023-02-15T12:04:06.416Z,33.86
2023-02-15T12:05:06.253Z,31.73
2023-02-15T12:06:06.235Z,33.06
2023-02-15T12:07:06.225Z,32.34
2023-02-15T12:08:06.206Z,33.84
2023-02-15T12:09:06.214Z,33.13
2023-02-15T12:10:06.173Z,34.05
2023-02-15T12:11:06.165Z,32.41
2023-02-15T12:12:06.179Z,33.81
2023-02-15T12:13:06.171Z,32.41
2023-02-15T12:14:06.144Z,33.29
2023-02-15T12:15:06.122Z,32.09
2023-02-15T12:16:06.168Z,30.79
2023-02-15T12:17:06.128Z,31.68
2023-02-15T12:18:06.106Z,32.17
2023-02-15T12:19:06.089Z,32.28
2023-02-15T12:20:06.066Z,33.81
2023-02-15T12:21:06.068Z,32.28
2023-02-15T12:22:06.929Z,32.29
2023-02-15T12:23:06.034Z,33.81
2023-02-15T12:24:06.053Z,32.10
2023-02-15T12:25:06.046Z,32.50
2023-02-15T12:26:06.006Z,31.28
2023-02-15T12:27:05.997Z,33.71
2023-02-15T12:28:05.978Z,30.79
2023-02-15T12:29:05.976Z,32.42
2023-02-15T12:30:06.020Z,31.70
2023-02-15T12:31:06.219Z,31.90
2023-02-15T12:32:06.044Z,32.50
2023-02-15T12:33:05.955Z,30.18
2023-02-15T12:34:05.918Z,28.98
2023-02-15T12:35:05.913Z,28.96
2023-02-15T12:36:05.906Z,31.07
2023-02-15T12:37:05.892Z,30.76
2023-02-15T12:38:05.873Z,29.86
2023-02-15T12:39:05.860Z,29.76
2023-02-15T12:40:05.848Z,29.86
2023-02-15T12:41:05.839Z,30.77
2023-02-15T12:42:05.858Z,30.68
2023-02-15T12:43:09.126Z,32.19
2023-02-15T12:44:05.815Z,30.89
2023-02-15T12:45:05.796Z,32.19
2023-02-15T12:46:05.783Z,30.77
2023-02-15T12:47:05.874Z,30.67
2023-02-15T12:48:05.793Z,32.48
2023-02-15T12:49:05.778Z,30.96
2023-02-15T12:50:05.840Z,30.07
2023-02-15T12:51:05.730Z,28.24
2023-02-15T12:52:05.727Z,31.68